createdAt,value
2022-09-23T00:00:15.716Z,92.90
2022-09-23T00:02:40.765Z,93.10
2022-09-23T00:05:04.508Z,92.90
2022-09-23T00:07:27.901Z,93.10
2022-09-23T00:09:51.594Z,93.60
2022-09-23T00:12:15.489Z,93.20
2022-09-23T00:14:40.090Z,93.00
2022-09-23T00:17:04.153Z,92.60
2022-09-23T00:19:29.479Z,93.00
2022-09-23T00:21:53.211Z,92.60
2022-09-23T00:24:16.920Z,92.20
2022-09-23T00:26:40.881Z,92.40
2022-09-23T00:29:05.093Z,92.70
2022-09-23T00:31:29.505Z,92.40
2022-09-23T00:33:57.089Z,92.40
2022-09-23T00:36:22.148Z,92.20
2022-09-23T00:38:46.908Z,92.80
2022-09-23T00:41:10.507Z,92.20
2022-09-23T00:43:45.962Z,92.00
2022-09-23T00:46:11.920Z,92.40
2022-09-23T00:48:37.227Z,92.20
2022-09-23T00:51:00.789Z,92.10
2022-09-23T00:53:27.728Z,92.20
2022-09-23T00:55:55.984Z,91.90
2022-09-23T00:58:25.255Z,91.80
2022-09-23T01:00:49.454Z,92.80
2022-09-23T01:03:13.126Z,92.00
2022-09-23T01:05:39.936Z,92.00
2022-09-23T01:08:05.936Z,92.10
2022-09-23T01:10:43.313Z,91.90
2022-09-23T01:13:17.096Z,92.30
2022-09-23T01:15:50.345Z,92.40
2022-09-23T01:18:31.912Z,92.10
2022-09-23T01:21:15.049Z,92.40
2022-09-23T01:24:40.977Z,92.70
2022-09-23T01:27:17.738Z,92.50
2022-09-23T01:30:36.219Z,92.50
2022-09-23T01:33:09.135Z,92.60
2022-09-23T01:35:49.131Z,92.60
2022-09-23T01:38:27.842Z,93.00
2022-09-23T01:41:00.344Z,92.50
2022-09-23T01:43:32.463Z,92.70
2022-09-23T01:46:00.674Z,92.50
2022-09-23T01:48:33.348Z,92.80
2022-09-23T01:51:03.406Z,92.90
2022-09-23T01:53:38.898Z,92.60
2022-09-23T01:56:08.656Z,92.50
2022-09-23T01:58:39.693Z,92.50
2022-09-23T02:01:08.129Z,92.40
2022-09-23T02:03:36.486Z,93.10
2022-09-23T02:06:06.533Z,93.00
2022-09-23T02:08:37.161Z,92.50
2022-09-23T02:11:06.778Z,92.60
2022-09-23T02:13:39.491Z,92.40
2022-09-23T02:16:10.290Z,92.90
2022-09-23T02:18:42.151Z,92.50
2022-09-23T02:21:09.723Z,92.30
2022-09-23T02:23:39.391Z,92.70
2022-09-23T02:26:09.735Z,92.60
2022-09-23T02:28:44.552Z,92.30
2022-09-23T02:31:16.229Z,92.30
2022-09-23T02:33:47.506Z,92.40
2022-09-23T02:36:18.547Z,92.40
2022-09-23T02:38:47.689Z,92.20
2022-09-23T02:41:17.495Z,92.70
2022-09-23T02:43:50.384Z,92.20
2022-09-23T02:46:16.070Z,92.10
2022-09-23T02:48:44.475Z,92.10
2022-09-23T02:51:08.304Z,92.20
2022-09-23T02:53:34.579Z,92.20
2022-09-23T02:55:58.056Z,92.50
2022-09-23T02:58:21.645Z,92.60
2022-09-23T03:00:57.403Z,92.20
2022-09-23T03:03:40.213Z,92.60
2022-09-23T03:06:16.384Z,92.30
2022-09-23T03:08:50.503Z,92.60
2022-09-23T03:11:15.249Z,92.70
2022-09-23T03:13:55.381Z,92.60
2022-09-23T03:16:31.434Z,94.20
2022-09-23T03:19:03.806Z,93.90
2022-09-23T03:21:35.569Z,94.20
2022-09-23T03:24:04.296Z,94.20
2022-09-23T03:26:33.178Z,92.60
2022-09-23T03:28:56.954Z,93.60
2022-09-23T03:31:20.850Z,94.80
2022-09-23T03:33:49.740Z,93.80
2022-09-23T03:36:37.841Z,93.60
2022-09-23T03:39:07.525Z,92.30
2022-09-23T03:41:36.397Z,92.30
2022-09-23T03:44:01.389Z,93.70
2022-09-23T03:46:27.562Z,93.80
2022-09-23T03:48:51.118Z,93.90
2022-09-23T03:51:24.797Z,94.30
2022-09-23T03:53:48.424Z,93.90
2022-09-23T03:56:12.371Z,94.50
2022-09-23T03:58:35.945Z,94.40
2022-09-23T04:00:59.620Z,94.50
2022-09-23T04:03:23.215Z,94.20
2022-09-23T04:05:48.470Z,94.50
2022-09-23T04:08:13.341Z,94.20
2022-09-23T04:10:36.819Z,94.40
2022-09-23T04:13:00.431Z,94.50
2022-09-23T04:15:24.083Z,94.70
2022-09-23T04:17:47.564Z,94.00
2022-09-23T04:20:11.453Z,94.70
2022-09-23T04:22:35.147Z,94.20
2022-09-23T04:24:59.988Z,94.50
2022-09-23T04:27:23.570Z,94.00
2022-09-23T04:29:47.074Z,94.90
2022-09-23T04:32:10.529Z,94.90
2022-09-23T04:34:34.088Z,94.70
2022-09-23T04:36:57.626Z,94.70
2022-09-23T04:39:21.191Z,95.50
2022-09-23T04:41:47.242Z,95.60
2022-09-23T04:44:12.026Z,95.20
2022-09-23T04:46:35.795Z,95.30
2022-09-23T04:48:59.365Z,95.10
2022-09-23T04:51:26.415Z,94.80
2022-09-23T04:53:52.392Z,94.70
2022-09-23T04:56:18.746Z,95.40
2022-09-23T04:58:44.418Z,94.80
2022-09-23T05:01:13.183Z,94.60
2022-09-23T05:03:36.702Z,94.50
2022-09-23T05:06:01.678Z,95.00
2022-09-23T05:08:25.246Z,94.70
2022-09-23T05:10:49.461Z,94.70
2022-09-23T05:13:13.087Z,94.90
2022-09-23T05:15:37.939Z,94.90
2022-09-23T05:18:02.568Z,95.10
2022-09-23T05:20:26.159Z,94.70
2022-09-23T05:22:49.648Z,95.00
2022-09-23T05:25:13.106Z,95.30
2022-09-23T05:27:36.703Z,95.40
2022-09-23T05:30:01.087Z,95.00
2022-09-23T05:32:26.359Z,95.00
2022-09-23T05:34:49.928Z,95.20
2022-09-23T05:37:13.530Z,95.60
2022-09-23T05:39:37.319Z,95.10
2022-09-23T05:42:01.122Z,95.10
2022-09-23T05:44:24.580Z,95.20
2022-09-23T05:46:48.231Z,95.70
2022-09-23T05:49:13.257Z,95.60
2022-09-23T05:51:37.105Z,95.50
2022-09-23T05:54:02.978Z,95.10
2022-09-23T05:56:29.436Z,95.40
2022-09-23T05:58:55.396Z,95.60
2022-09-23T06:01:22.049Z,96.30
2022-09-23T06:03:48.306Z,95.80
2022-09-23T06:06:16.017Z,95.30
2022-09-23T06:08:39.633Z,95.60
2022-09-23T06:11:07.717Z,95.40
2022-09-23T06:13:31.270Z,95.90
2022-09-23T06:15:59.409Z,95.70
2022-09-23T06:18:23.027Z,95.40
2022-09-23T06:20:47.099Z,95.70
2022-09-23T06:23:12.910Z,95.90
2022-09-23T06:25:38.405Z,95.80
2022-09-23T06:28:02.348Z,95.90
2022-09-23T06:30:27.554Z,95.80
2022-09-23T06:32:52.101Z,95.50
2022-09-23T06:35:24.948Z,95.60
2022-09-23T06:37:49.653Z,94.20
2022-09-23T06:40:15.535Z,94.60
2022-09-23T06:42:39.001Z,94.00
2022-09-23T06:45:02.901Z,94.10
2022-09-23T06:47:26.515Z,93.90
2022-09-23T06:49:51.568Z,94.70
2022-09-23T06:52:15.038Z,94.30
2022-09-23T06:54:38.554Z,94.60
2022-09-23T06:57:03.407Z,94.20
2022-09-23T06:59:26.939Z,94.70
2022-09-23T07:01:50.805Z,94.00
2022-09-23T07:04:14.556Z,94.70
2022-09-23T07:06:38.208Z,94.00
2022-09-23T07:09:02.052Z,93.80
2022-09-23T07:11:27.038Z,94.10
2022-09-23T07:13:52.510Z,93.70
2022-09-23T07:16:16.314Z,93.80
2022-09-23T07:18:41.062Z,93.30
2022-09-23T07:21:10.205Z,93.40
2022-09-23T07:23:33.966Z,93.20
2022-09-23T07:26:00.260Z,93.50
2022-09-23T07:28:24.097Z,92.80
2022-09-23T07:30:58.876Z,92.50
2022-09-23T07:33:31.508Z,92.90
2022-09-23T07:35:55.909Z,92.90
2022-09-23T07:38:19.469Z,92.80
2022-09-23T07:40:43.023Z,92.80
2022-09-23T07:43:07.715Z,92.90
2022-09-23T07:45:34.183Z,92.50
2022-09-23T07:47:59.155Z,92.90
2022-09-23T07:50:22.954Z,92.70
2022-09-23T07:52:46.653Z,92.80
2022-09-23T07:55:10.543Z,93.00
2022-09-23T07:57:35.036Z,93.50
2022-09-23T07:59:58.564Z,92.70
2022-09-23T08:02:22.677Z,92.50
2022-09-23T08:04:47.652Z,92.70
2022-09-23T08:07:14.493Z,93.20
2022-09-23T08:09:41.533Z,92.60
2022-09-23T08:12:05.593Z,92.60
2022-09-23T08:14:29.386Z,92.20
2022-09-23T08:16:54.159Z,92.40
2022-09-23T08:19:18.272Z,92.90
2022-09-23T08:21:43.515Z,91.40
2022-09-23T08:24:07.259Z,91.90
2022-09-23T08:26:30.950Z,91.70
2022-09-23T08:28:56.547Z,92.40
2022-09-23T08:31:20.602Z,91.90
2022-09-23T08:33:44.506Z,91.90
2022-09-23T08:36:09.164Z,92.40
2022-09-23T08:38:34.393Z,92.60
2022-09-23T08:41:09.358Z,93.10
2022-09-23T08:43:36.154Z,92.60
2022-09-23T08:46:03.765Z,92.80
2022-09-23T08:48:32.262Z,93.80
2022-09-23T08:51:02.596Z,93.20
2022-09-23T08:53:28.943Z,92.90
2022-09-23T08:55:57.497Z,93.50
2022-09-23T08:58:43.232Z,93.30
2022-09-23T09:01:17.672Z,93.00
2022-09-23T09:03:47.881Z,92.80
2022-09-23T09:06:19.949Z,92.50
2022-09-23T09:08:46.345Z,92.20
2022-09-23T09:11:15.203Z,90.60
2022-09-23T09:13:47.464Z,89.20
2022-09-23T09:16:59.068Z,89.60
2022-09-23T09:19:47.314Z,89.90
2022-09-23T09:22:23.812Z,88.50
2022-09-23T09:24:50.927Z,86.90
2022-09-23T09:27:16.260Z,88.00
2022-09-23T09:29:43.968Z,86.50
2022-09-23T09:32:23.687Z,86.70
2022-09-23T09:34:54.882Z,86.00
2022-09-23T09:37:25.966Z,86.10
2022-09-23T09:39:49.547Z,86.30
2022-09-23T09:42:24.526Z,84.30
2022-09-23T09:44:54.214Z,84.60
2022-09-23T09:47:29.499Z,85.30
2022-09-23T09:50:01.969Z,83.30
2022-09-23T09:52:29.915Z,85.00
2022-09-23T09:54:56.209Z,83.10
2022-09-23T09:57:36.360Z,83.60
2022-09-23T10:00:19.024Z,83.80
2022-09-23T10:02:42.776Z,81.10
2022-09-23T10:05:08.968Z,82.20
2022-09-23T10:07:35.381Z,83.90
2022-09-23T10:10:15.996Z,82.40
2022-09-23T10:12:49.109Z,80.90
2022-09-23T10:15:31.373Z,82.00
2022-09-23T10:17:55.020Z,82.40
2022-09-23T10:20:18.931Z,82.50
2022-09-23T10:22:43.891Z,82.70
2022-09-23T10:25:11.481Z,81.80
2022-09-23T10:27:37.138Z,81.70
2022-09-23T10:30:05.029Z,82.40
2022-09-23T10:32:32.665Z,82.30
2022-09-23T10:34:59.802Z,83.10
2022-09-23T10:37:32.600Z,83.00
2022-09-23T10:40:13.735Z,81.60
2022-09-23T10:43:12.524Z,81.90
2022-09-23T10:45:59.193Z,81.50
2022-09-23T10:48:31.186Z,81.80
2022-09-23T10:50:56.116Z,81.60
2022-09-23T10:53:28.314Z,82.20
2022-09-23T10:56:13.085Z,81.40
2022-09-23T10:59:11.514Z,80.70
2022-09-23T11:01:45.671Z,82.50
2022-09-23T11:04:37.341Z,81.10
2022-09-23T11:07:14.325Z,82.60
2022-09-23T11:09:58.319Z,81.90
2022-09-23T11:12:33.569Z,81.80
2022-09-23T11:15:30.027Z,81.30
2022-09-23T11:18:35.272Z,81.30
2022-09-23T11:21:10.429Z,80.30
2022-09-23T11:23:57.952Z,78.60
2022-09-23T11:26:36.673Z,78.50
2022-09-23T11:29:35.451Z,78.90
2022-09-23T11:32:24.987Z,77.80
2022-09-23T11:35:04.252Z,78.30
2022-09-23T11:37:31.903Z,77.50
2022-09-23T11:40:03.592Z,77.60
2022-09-23T11:42:32.417Z,78.80
2022-09-23T11:45:03.403Z,76.90
2022-09-23T11:47:35.248Z,78.10
2022-09-23T11:50:07.561Z,77.50
2022-09-23T11:52:37.086Z,78.90
2022-09-23T11:55:18.110Z,77.20
2022-09-23T11:57:51.407Z,78.00
2022-09-23T12:00:20.197Z,77.30
2022-09-23T12:03:05.985Z,75.10
2022-09-23T12:05:36.944Z,75.30
2022-09-23T12:08:07.720Z,77.50
2022-09-23T12:10:45.889Z,77.50
2022-09-23T12:13:18.113Z,77.90
2022-09-23T12:15:59.379Z,77.80
2022-09-23T12:18:43.142Z,76.20
2022-09-23T12:21:50.327Z,75.80
2022-09-23T12:24:48.399Z,75.70
2022-09-23T12:27:24.200Z,74.80
2022-09-23T12:29:50.714Z,78.70
2022-09-23T12:32:19.588Z,78.60
2022-09-23T12:34:48.832Z,76.70
2022-09-23T12:37:13.807Z,76.00
2022-09-23T12:39:39.674Z,76.90
2022-09-23T12:42:06.578Z,77.60
2022-09-23T12:44:40.467Z,76.90
2022-09-23T12:47:38.913Z,76.80
2022-09-23T12:50:02.502Z,77.70
2022-09-23T12:52:30.908Z,75.80
2022-09-23T12:54:58.648Z,76.60
2022-09-23T12:57:43.720Z,75.70
2022-09-23T13:00:24.733Z,76.00
2022-09-23T13:03:15.753Z,76.30
2022-09-23T13:06:00.908Z,76.50
2022-09-23T13:08:27.050Z,76.50
2022-09-23T13:10:56.279Z,76.40
2022-09-23T13:13:25.441Z,77.30
2022-09-23T13:15:49.887Z,75.60
2022-09-23T13:18:59.581Z,73.40
2022-09-23T13:22:08.821Z,75.40
2022-09-23T13:24:44.637Z,75.30
2022-09-23T13:27:19.712Z,75.80
2022-09-23T13:29:50.042Z,75.90
2022-09-23T13:32:18.367Z,77.40
2022-09-23T13:34:46.672Z,76.20
2022-09-23T13:37:22.628Z,76.70
2022-09-23T13:39:48.177Z,77.10
2022-09-23T13:42:22.198Z,76.70
2022-09-23T13:44:46.295Z,75.60
2022-09-23T13:47:14.666Z,73.70
2022-09-23T13:49:38.606Z,77.00
2022-09-23T13:52:03.250Z,77.20
2022-09-23T13:54:32.168Z,77.30
2022-09-23T13:56:57.462Z,77.40
2022-09-23T13:59:27.119Z,75.90
2022-09-23T14:01:50.822Z,68.90
2022-09-23T14:04:25.380Z,71.70
2022-09-23T14:06:49.177Z,67.80
2022-09-23T14:09:14.750Z,68.50
2022-09-23T14:11:38.919Z,69.30
2022-09-23T14:14:07.228Z,70.20
2022-09-23T14:16:31.536Z,70.20
2022-09-23T14:18:59.695Z,70.50
2022-09-23T14:21:34.903Z,71.30
2022-09-23T14:24:09.469Z,71.10
2022-09-23T14:26:33.167Z,68.50
2022-09-23T14:28:56.746Z,70.70
2022-09-23T14:31:21.771Z,71.10
2022-09-23T14:33:46.898Z,69.70
2022-09-23T14:36:37.412Z,70.30
2022-09-23T14:39:06.475Z,71.20
2022-09-23T14:41:35.538Z,70.40
2022-09-23T14:44:01.235Z,71.30
2022-09-23T14:46:28.759Z,71.00
2022-09-23T14:49:00.444Z,69.50
2022-09-23T14:51:33.233Z,70.40
2022-09-23T14:53:56.846Z,69.70
2022-09-23T14:56:22.751Z,69.40
2022-09-23T14:58:52.897Z,70.60
2022-09-23T15:01:40.263Z,70.80
2022-09-23T15:04:14.583Z,71.00
2022-09-23T15:06:39.327Z,71.60
2022-09-23T15:09:03.005Z,69.60
2022-09-23T15:11:26.645Z,69.40
2022-09-23T15:13:52.964Z,68.60
2022-09-23T15:16:17.944Z,69.60
2022-09-23T15:18:46.087Z,70.90
2022-09-23T15:21:12.956Z,70.80
2022-09-23T15:23:45.867Z,71.60
2022-09-23T15:26:13.441Z,72.20
2022-09-23T15:28:40.130Z,72.50
2022-09-23T15:31:05.868Z,71.50
2022-09-23T15:33:29.933Z,72.50
2022-09-23T15:35:55.551Z,72.50
2022-09-23T15:38:19.090Z,71.10
2022-09-23T15:40:43.426Z,73.60
2022-09-23T15:43:20.491Z,74.00
2022-09-23T15:45:47.998Z,74.30
2022-09-23T15:48:15.336Z,73.30
2022-09-23T15:50:39.471Z,74.10
2022-09-23T15:53:06.051Z,73.70
2022-09-23T15:55:29.583Z,73.70
2022-09-23T15:57:53.188Z,72.40
2022-09-23T16:00:17.416Z,73.10
2022-09-23T16:02:41.506Z,75.30
2022-09-23T16:05:07.687Z,74.90
2022-09-23T16:07:31.198Z,74.10
2022-09-23T16:09:58.627Z,75.00
2022-09-23T16:12:23.318Z,73.60
2022-09-23T16:14:46.813Z,73.20
2022-09-23T16:17:14.969Z,75.60
2022-09-23T16:19:38.468Z,73.80
2022-09-23T16:22:02.169Z,72.70
2022-09-23T16:24:28.142Z,74.80
2022-09-23T16:26:59.820Z,74.70
2022-09-23T16:29:26.421Z,75.60
2022-09-23T16:31:50.011Z,74.00
2022-09-23T16:34:13.581Z,75.70
2022-09-23T16:36:41.235Z,76.10
2022-09-23T16:39:08.040Z,75.40
2022-09-23T16:41:32.617Z,75.80
2022-09-23T16:43:57.646Z,75.90
2022-09-23T16:46:22.526Z,75.90
2022-09-23T16:48:52.103Z,76.10
2022-09-23T16:51:20.503Z,76.50
2022-09-23T16:53:44.324Z,76.70
2022-09-23T16:56:09.619Z,77.50
2022-09-23T16:58:33.141Z,78.20
2022-09-23T17:01:17.893Z,76.60
2022-09-23T17:03:41.430Z,76.90
2022-09-23T17:06:08.064Z,77.60
2022-09-23T17:08:32.121Z,77.10
2022-09-23T17:11:00.297Z,77.20
2022-09-23T17:13:25.413Z,77.40
2022-09-23T17:15:49.211Z,77.80
2022-09-23T17:18:17.685Z,78.70
2022-09-23T17:20:43.043Z,78.80
2022-09-23T17:23:07.964Z,78.80
2022-09-23T17:25:31.608Z,77.70
2022-09-23T17:27:55.723Z,78.80
2022-09-23T17:30:19.736Z,78.90
2022-09-23T17:32:43.836Z,79.00
2022-09-23T17:35:10.597Z,80.80
2022-09-23T17:37:34.187Z,81.60
2022-09-23T17:39:57.794Z,81.60
2022-09-23T17:42:21.772Z,82.90
2022-09-23T17:44:45.891Z,85.10
2022-09-23T17:47:09.770Z,84.90
2022-09-23T17:49:35.512Z,85.20
2022-09-23T17:52:03.301Z,85.00
2022-09-23T17:54:27.101Z,85.10
2022-09-23T17:56:50.725Z,85.30
2022-09-23T17:59:14.490Z,85.50
2022-09-23T18:01:38.214Z,87.40
2022-09-23T18:04:05.639Z,87.40
2022-09-23T18:06:32.157Z,86.90
2022-09-23T18:08:57.061Z,87.80
2022-09-23T18:11:24.042Z,87.50
2022-09-23T18:13:53.256Z,88.00
2022-09-23T18:16:16.978Z,88.30
2022-09-23T18:18:40.629Z,88.60
2022-09-23T18:21:04.582Z,88.60
2022-09-23T18:23:28.212Z,89.40
2022-09-23T18:25:53.135Z,89.70
2022-09-23T18:28:16.637Z,88.70
2022-09-23T18:30:40.142Z,88.30
2022-09-23T18:33:03.675Z,87.60
2022-09-23T18:35:28.341Z,89.40
2022-09-23T18:37:51.916Z,89.70
2022-09-23T18:40:15.511Z,89.10
2022-09-23T18:42:41.452Z,88.90
2022-09-23T18:45:05.643Z,89.60
2022-09-23T18:47:47.733Z,89.40
2022-09-23T18:50:31.220Z,89.50
2022-09-23T18:52:54.688Z,88.70
2022-09-23T18:55:18.726Z,88.10
2022-09-23T18:57:43.469Z,89.70
2022-09-23T19:00:09.327Z,89.60
2022-09-23T19:02:33.190Z,89.70
2022-09-23T19:04:57.084Z,90.60
2022-09-23T19:07:20.600Z,90.70
2022-09-23T19:09:44.072Z,90.90
2022-09-23T19:12:07.582Z,91.10
2022-09-23T19:14:35.715Z,90.30
2022-09-23T19:16:59.426Z,89.80
2022-09-23T19:19:23.476Z,89.30
2022-09-23T19:21:47.616Z,89.30
2022-09-23T19:24:15.975Z,89.00
2022-09-23T19:26:41.549Z,89.30
2022-09-23T19:29:08.237Z,89.40
2022-09-23T19:31:35.352Z,90.30
2022-09-23T19:34:00.694Z,90.70
2022-09-23T19:36:29.729Z,90.70
2022-09-23T19:38:55.751Z,90.90
2022-09-23T19:41:20.094Z,90.60
2022-09-23T19:43:47.411Z,89.60
2022-09-23T19:46:10.924Z,90.90
2022-09-23T19:48:35.785Z,91.30
2022-09-23T19:50:59.318Z,90.80
2022-09-23T19:53:27.869Z,91.90
2022-09-23T19:55:53.542Z,92.00
2022-09-23T19:58:17.250Z,91.80
2022-09-23T20:00:41.467Z,91.50
2022-09-23T20:03:05.147Z,90.70
2022-09-23T20:05:30.072Z,91.30
2022-09-23T20:07:53.527Z,92.00
2022-09-23T20:10:17.349Z,92.60
2022-09-23T20:12:42.332Z,92.40
2022-09-23T20:15:07.027Z,92.90
2022-09-23T20:17:31.338Z,93.00
2022-09-23T20:19:54.884Z,93.60
2022-09-23T20:22:28.506Z,93.40
2022-09-23T20:24:56.561Z,94.20
2022-09-23T20:27:19.165Z,94.30
2022-09-23T20:29:43.236Z,93.40
2022-09-23T20:32:07.171Z,93.60
2022-09-23T20:34:33.645Z,93.70
2022-09-23T20:36:57.433Z,93.20
2022-09-23T20:39:22.920Z,92.30
2022-09-23T20:41:48.240Z,92.30
2022-09-23T20:44:13.891Z,93.90
2022-09-23T20:46:37.551Z,94.30
2022-09-23T20:49:02.066Z,93.90
2022-09-23T20:51:26.335Z,94.10
2022-09-23T20:53:51.839Z,94.10
2022-09-23T20:56:18.880Z,95.00
2022-09-23T20:58:43.147Z,93.70
2022-09-23T21:01:10.629Z,93.70
2022-09-23T21:03:34.869Z,94.00
2022-09-23T21:06:01.031Z,93.50
2022-09-23T21:08:25.104Z,94.00
2022-09-23T21:10:55.907Z,94.20
2022-09-23T21:13:20.861Z,93.40
2022-09-23T21:15:44.446Z,93.90
2022-09-23T21:18:12.299Z,94.40
2022-09-23T21:20:38.087Z,94.70
2022-09-23T21:23:01.693Z,94.90
2022-09-23T21:25:28.092Z,95.20
2022-09-23T21:27:54.255Z,95.50
2022-09-23T21:30:19.311Z,94.90
2022-09-23T21:32:42.944Z,93.70
2022-09-23T21:35:07.321Z,93.90
2022-09-23T21:37:30.876Z,93.60
2022-09-23T21:40:08.342Z,93.90
2022-09-23T21:42:31.880Z,93.90
2022-09-23T21:44:55.363Z,94.30
2022-09-23T21:47:20.681Z,93.90
2022-09-23T21:49:48.482Z,94.80
2022-09-23T21:52:14.317Z,94.40
2022-09-23T21:54:37.726Z,94.30
2022-09-23T21:57:01.718Z,94.40
2022-09-23T21:59:25.275Z,94.80
2022-09-23T22:01:54.004Z,95.20
2022-09-23T22:04:20.745Z,94.50
2022-09-23T22:06:44.736Z,95.10
2022-09-23T22:09:11.812Z,95.00
2022-09-23T22:11:53.287Z,94.40
2022-09-23T22:14:18.879Z,94.40
2022-09-23T22:16:43.098Z,94.10
2022-09-23T22:19:07.571Z,93.80
2022-09-23T22:21:33.076Z,94.00
2022-09-23T22:23:58.053Z,93.60
2022-09-23T22:26:22.051Z,94.10
2022-09-23T22:29:03.008Z,94.20
2022-09-23T22:31:44.229Z,93.90
2022-09-23T22:34:20.408Z,93.70
2022-09-23T22:36:53.261Z,94.20
2022-09-23T22:39:16.942Z,94.40
2022-09-23T22:41:41.197Z,95.50
2022-09-23T22:44:05.274Z,96.00
2022-09-23T22:46:28.942Z,96.30
2022-09-23T22:48:53.488Z,97.30
2022-09-23T22:51:17.321Z,98.10
2022-09-23T22:53:42.153Z,97.40
2022-09-23T22:56:05.684Z,97.70
2022-09-23T22:58:32.730Z,98.20
2022-09-23T23:00:57.981Z,98.40
2022-09-23T23:03:22.049Z,98.40
2022-09-23T23:05:45.815Z,98.50
2022-09-23T23:08:09.726Z,98.00
2022-09-23T23:10:37.418Z,98.00
2022-09-23T23:13:01.713Z,97.50
2022-09-23T23:15:25.113Z,98.00
2022-09-23T23:17:48.744Z,97.90
2022-09-23T23:20:12.384Z,98.80
2022-09-23T23:22:35.991Z,99.90
2022-09-23T23:24:59.441Z,99.50
2022-09-23T23:27:24.459Z,99.60
2022-09-23T23:29:48.043Z,99.90
2022-09-23T23:32:11.866Z,99.70
2022-09-23T23:34:35.368Z,99.20
2022-09-23T23:36:58.939Z,99.00
2022-09-23T23:39:26.773Z,99.00
2022-09-23T23:41:53.217Z,98.60
2022-09-23T23:44:18.174Z,98.80
2022-09-23T23:46:41.860Z,99.40
2022-09-23T23:49:06.833Z,99.80
2022-09-23T23:51:30.358Z,99.90
2022-09-23T23:53:54.626Z,99.00
2022-09-23T23:56:19.937Z,99.50
2022-09-23T23:58:44.028Z,98.90
